createdAt,value
2022-08-25T00:02:11.868Z,6.28
2022-08-25T00:07:13.638Z,6.75
2022-08-25T00:12:20.523Z,6.47
2022-08-25T00:17:22.208Z,7.68
2022-08-25T00:22:23.998Z,7.22
2022-08-25T00:27:26.070Z,7.85
2022-08-25T00:32:28.009Z,7.72
2022-08-25T00:37:29.664Z,7.35
2022-08-25T00:42:31.738Z,8.05
2022-08-25T00:47:33.364Z,7.28
2022-08-25T00:52:41.539Z,7.07
2022-08-25T00:57:56.844Z,6.13
2022-08-25T01:02:59.459Z,7.20
2022-08-25T01:08:06.517Z,7.72
2022-08-25T01:13:26.401Z,7.23
2022-08-25T01:18:28.716Z,8.52
2022-08-25T01:23:30.334Z,7.57
2022-08-25T01:28:32.493Z,7.38
2022-08-25T01:33:34.488Z,6.65
2022-08-25T01:38:36.099Z,7.85
2022-08-25T01:43:38.959Z,7.18
2022-08-25T01:48:40.555Z,7.75
2022-08-25T01:53:44.166Z,7.65
2022-08-25T01:58:49.076Z,6.63
2022-08-25T02:03:53.823Z,7.57
2022-08-25T02:08:58.531Z,7.60
2022-08-25T02:14:01.099Z,8.57
2022-08-25T02:19:05.013Z,7.70
2022-08-25T02:24:07.782Z,8.10
2022-08-25T02:29:10.379Z,7.93
2022-08-25T02:34:12.024Z,8.25
2022-08-25T02:39:13.828Z,8.32
2022-08-25T02:44:15.442Z,8.35
2022-08-25T02:49:17.126Z,10.38
2022-08-25T02:54:18.733Z,8.57
2022-08-25T02:59:21.105Z,7.90
2022-08-25T03:04:22.850Z,8.40
2022-08-25T03:09:24.684Z,8.93
2022-08-25T03:14:26.302Z,8.82
2022-08-25T03:19:27.936Z,9.00
2022-08-25T03:24:29.611Z,9.60
2022-08-25T03:29:33.063Z,9.13
2022-08-25T03:34:34.765Z,9.45
2022-08-25T03:39:36.463Z,8.70
2022-08-25T03:44:38.107Z,9.77
2022-08-25T03:49:39.708Z,9.07
2022-08-25T03:54:41.691Z,9.57
2022-08-25T03:59:43.587Z,8.95
2022-08-25T04:04:45.310Z,9.57
2022-08-25T04:09:47.447Z,9.88
2022-08-25T04:14:49.532Z,10.43
2022-08-25T04:19:51.661Z,9.85
2022-08-25T04:24:53.315Z,9.70
2022-08-25T04:29:56.721Z,10.13
2022-08-25T04:34:58.401Z,10.07
2022-08-25T04:40:00.533Z,9.68
2022-08-25T04:45:04.053Z,10.85
2022-08-25T04:50:07.460Z,10.50
2022-08-25T04:55:09.295Z,10.00
2022-08-25T05:00:11.647Z,9.82
2022-08-25T05:05:13.309Z,10.07
2022-08-25T05:10:14.924Z,13.02
2022-08-25T05:15:39.853Z,9.95
2022-08-25T05:20:41.618Z,10.00
2022-08-25T05:25:44.519Z,10.85
2022-08-25T05:30:49.603Z,10.60
2022-08-25T05:35:51.891Z,11.27
2022-08-25T05:41:02.222Z,11.32
2022-08-25T05:46:04.242Z,11.88
2022-08-25T05:51:08.282Z,11.20
2022-08-25T05:56:10.751Z,10.18
2022-08-25T06:01:39.630Z,9.95
2022-08-25T06:06:41.492Z,10.23
2022-08-25T06:11:43.358Z,10.75
2022-08-25T06:16:44.953Z,11.00
2022-08-25T06:21:46.667Z,10.93
2022-08-25T06:26:48.311Z,10.65
2022-08-25T06:31:50.476Z,10.48
2022-08-25T06:36:52.741Z,10.98
2022-08-25T06:41:56.622Z,14.73
2022-08-25T06:47:00.678Z,11.05
2022-08-25T06:52:02.797Z,10.25
2022-08-25T06:57:06.210Z,10.90
2022-08-25T07:02:08.739Z,10.25
2022-08-25T07:07:10.433Z,11.32
2022-08-25T07:12:12.019Z,10.93
2022-08-25T07:17:13.954Z,10.68
2022-08-25T07:22:16.110Z,10.25
2022-08-25T07:27:17.926Z,10.90
2022-08-25T07:32:19.615Z,10.05
2022-08-25T07:42:45.043Z,8.98
2022-08-25T07:47:46.764Z,10.18
2022-08-25T07:52:52.150Z,9.55
2022-08-25T07:57:57.524Z,8.80
2022-08-25T08:03:01.230Z,9.20
2022-08-25T08:08:05.848Z,9.35
2022-08-25T08:13:08.931Z,8.57
2022-08-25T08:18:11.799Z,8.30
2022-08-25T08:23:14.111Z,8.40
2022-08-25T08:28:15.710Z,8.60
2022-08-25T08:33:17.375Z,8.13
2022-08-25T08:38:22.058Z,7.97
2022-08-25T08:43:33.208Z,7.93
2022-08-25T08:48:46.734Z,7.40
2022-08-25T08:53:59.919Z,7.10
2022-08-25T08:59:06.686Z,7.22
2022-08-25T09:04:17.284Z,7.95
2022-08-25T09:09:27.360Z,7.70
2022-08-25T09:14:55.869Z,8.30
2022-08-25T09:20:00.500Z,8.05
2022-08-25T09:25:10.552Z,8.25
2022-08-25T09:30:17.540Z,8.68
2022-08-25T09:35:24.232Z,6.93
2022-08-25T09:40:30.100Z,7.60
2022-08-25T09:45:42.453Z,6.90
2022-08-25T09:50:46.818Z,7.38
2022-08-25T09:55:59.978Z,8.25
2022-08-25T10:01:14.630Z,6.15
2022-08-25T10:06:16.337Z,7.05
2022-08-25T10:11:33.654Z,6.85
2022-08-25T10:16:36.185Z,6.88
2022-08-25T10:21:41.513Z,6.55
2022-08-25T10:26:51.325Z,6.88
2022-08-25T10:31:58.254Z,5.80
2022-08-25T10:37:21.663Z,5.17
2022-08-25T10:42:57.731Z,5.90
2022-08-25T10:48:24.447Z,5.25
2022-08-25T10:53:56.255Z,6.05
2022-08-25T10:59:35.588Z,5.93
2022-08-25T11:04:49.198Z,5.97
2022-08-25T11:09:55.303Z,6.28
2022-08-25T11:15:09.597Z,7.15
2022-08-25T11:20:19.941Z,5.85
2022-08-25T11:25:35.163Z,5.95
2022-08-25T11:30:38.323Z,6.57
2022-08-25T11:35:47.250Z,6.25
2022-08-25T11:41:14.564Z,5.40
2022-08-25T11:46:53.937Z,6.78
2022-08-25T11:51:55.858Z,5.97
2022-08-25T11:57:17.138Z,5.65
2022-08-25T12:02:39.198Z,6.22
2022-08-25T12:07:46.818Z,7.18
2022-08-25T12:18:22.017Z,6.38
2022-08-25T12:23:38.084Z,6.53
2022-08-25T12:29:11.619Z,6.82
2022-08-25T12:34:32.908Z,5.85
2022-08-25T12:39:43.222Z,6.55
2022-08-25T12:44:48.005Z,7.20
2022-08-25T12:49:52.259Z,7.28
2022-08-25T12:54:59.528Z,7.68
2022-08-25T13:00:12.994Z,8.13
2022-08-25T13:05:40.071Z,11.73
2022-08-25T13:10:50.814Z,18.33
2022-08-25T13:16:08.987Z,12.30
2022-08-25T13:21:31.836Z,12.35
2022-08-25T13:26:48.041Z,5.72
2022-08-25T13:32:02.398Z,8.57
2022-08-25T13:37:31.308Z,11.35
2022-08-25T13:42:33.209Z,19.80
2022-08-25T13:47:43.716Z,10.25
2022-08-25T13:52:54.340Z,8.13
2022-08-25T13:57:59.109Z,9.70
2022-08-25T14:03:03.422Z,7.40
2022-08-25T14:08:32.645Z,7.78
2022-08-25T14:13:36.451Z,9.45
2022-08-25T14:18:54.611Z,8.48
2022-08-25T14:24:00.810Z,7.03
2022-08-25T14:29:02.793Z,5.90
2022-08-25T14:34:15.582Z,6.60
2022-08-25T14:39:18.584Z,8.77
2022-08-25T14:44:20.995Z,10.27
2022-08-25T14:49:32.743Z,9.02
2022-08-25T14:54:37.496Z,8.27
2022-08-25T14:59:43.201Z,9.02
2022-08-25T15:04:53.656Z,7.85
2022-08-25T15:09:55.300Z,9.13
2022-08-25T15:14:58.269Z,10.70
2022-08-25T15:19:59.967Z,8.85
2022-08-25T15:25:01.949Z,11.07
2022-08-25T15:30:04.694Z,6.88
2022-08-25T15:35:06.978Z,6.05
2022-08-25T15:40:09.632Z,5.35
2022-08-25T15:45:11.830Z,10.05
2022-08-25T15:50:17.424Z,7.88
2022-08-25T15:55:19.995Z,6.75
2022-08-25T16:00:22.101Z,7.60
2022-08-25T16:05:25.985Z,6.63
2022-08-25T16:10:28.110Z,8.88
2022-08-25T16:15:29.734Z,9.82
2022-08-25T16:20:34.628Z,9.98
2022-08-25T16:25:41.695Z,7.13
2022-08-25T16:30:52.697Z,8.77
2022-08-25T16:36:14.614Z,8.43
2022-08-25T16:41:20.113Z,8.40
2022-08-25T16:46:23.786Z,9.27
2022-08-25T16:51:29.654Z,9.02
2022-08-25T16:56:37.067Z,10.25
2022-08-25T17:01:40.931Z,10.05
2022-08-25T17:06:51.876Z,9.10
2022-08-25T17:11:56.848Z,7.10
2022-08-25T17:16:58.625Z,8.45
2022-08-25T17:22:00.519Z,9.32
2022-08-25T17:27:02.231Z,6.65
2022-08-25T17:32:04.693Z,11.15
2022-08-25T17:37:06.849Z,12.40
2022-08-25T17:42:09.006Z,10.00
2022-08-25T17:47:11.258Z,12.25
2022-08-25T17:52:13.224Z,12.57
2022-08-25T17:57:16.196Z,11.38
2022-08-25T18:02:17.872Z,13.70
2022-08-25T18:07:19.543Z,9.48
2022-08-25T18:12:21.396Z,14.77
2022-08-25T18:22:32.307Z,11.85
2022-08-25T18:27:35.098Z,12.07
2022-08-25T18:32:36.803Z,14.30
2022-08-25T18:37:57.176Z,9.85
2022-08-25T18:43:02.762Z,13.70
2022-08-25T18:48:04.983Z,12.10
2022-08-25T18:53:09.460Z,18.70
2022-08-25T18:58:11.771Z,14.73
2022-08-25T19:03:16.031Z,13.50
2022-08-25T19:08:19.119Z,16.80
2022-08-25T19:13:23.533Z,14.73
2022-08-25T19:18:25.947Z,13.20
2022-08-25T19:23:32.567Z,12.90
2022-08-25T19:28:35.788Z,10.90
2022-08-25T19:33:44.755Z,12.63
2022-08-25T19:38:47.081Z,13.10
2022-08-25T19:43:56.459Z,13.90
2022-08-25T19:49:01.495Z,14.35
2022-08-25T19:54:09.209Z,11.73
2022-08-25T19:59:11.976Z,10.00
2022-08-25T20:04:13.819Z,14.73
2022-08-25T20:09:20.786Z,14.60
2022-08-25T20:14:37.866Z,12.60
2022-08-25T20:19:39.887Z,17.42
2022-08-25T20:24:50.942Z,12.50
2022-08-25T20:29:53.549Z,14.07
2022-08-25T20:34:55.915Z,12.00
2022-08-25T20:39:58.143Z,10.15
2022-08-25T20:45:00.344Z,9.20
2022-08-25T20:50:06.730Z,10.98
2022-08-25T20:55:09.846Z,10.77
2022-08-25T21:00:15.843Z,21.17
2022-08-25T21:05:17.653Z,10.43
2022-08-25T21:10:19.417Z,13.63
2022-08-25T21:15:21.134Z,12.98
2022-08-25T21:20:24.101Z,14.02
2022-08-25T21:25:25.786Z,10.15
2022-08-25T21:30:28.537Z,13.85
2022-08-25T21:35:30.774Z,14.70
2022-08-25T21:40:38.731Z,11.27
2022-08-25T21:50:48.538Z,10.52
2022-08-25T21:55:50.459Z,9.93
2022-08-25T22:00:52.131Z,15.57
2022-08-25T22:05:55.310Z,10.60
2022-08-25T22:10:57.597Z,17.95
2022-08-25T22:15:59.338Z,12.57
2022-08-25T22:21:07.287Z,10.85
2022-08-25T22:26:11.174Z,11.63
2022-08-25T22:31:14.434Z,12.00
2022-08-25T22:36:28.659Z,8.75
2022-08-25T22:41:31.573Z,10.82
2022-08-25T22:46:34.888Z,17.23
2022-08-25T22:51:37.432Z,12.05
2022-08-25T22:56:39.788Z,14.25
2022-08-25T23:01:43.483Z,17.00
2022-08-25T23:06:45.140Z,13.27
2022-08-25T23:11:51.197Z,12.93
2022-08-25T23:16:53.459Z,15.45
2022-08-25T23:22:10.550Z,16.65
2022-08-25T23:27:15.721Z,9.38
2022-08-25T23:32:18.537Z,12.82
2022-08-25T23:37:20.149Z,14.27
2022-08-25T23:42:21.844Z,12.00
2022-08-25T23:47:23.658Z,12.75
2022-08-25T23:52:26.011Z,10.85
2022-08-25T23:57:27.611Z,13.15
